createdAt,value
2019-05-09T00:00:00.586Z,43.08
2019-05-09T00:02:33.699Z,41.23
2019-05-09T00:05:03.802Z,43.55
2019-05-09T00:07:33.784Z,32.40
2019-05-09T00:10:06.902Z,34.10
2019-05-09T00:12:37.056Z,35.00
2019-05-09T00:15:07.931Z,35.00
2019-05-09T00:17:39.667Z,29.65
2019-05-09T00:20:24.593Z,29.50
2019-05-09T00:22:54.388Z,28.50
2019-05-09T00:25:24.849Z,34.10
2019-05-09T00:27:55.512Z,30.77
2019-05-09T00:30:44.566Z,30.70
2019-05-09T00:33:16.166Z,30.25
2019-05-09T00:35:46.034Z,31.77
2019-05-09T00:38:16.583Z,29.05
2019-05-09T00:40:57.865Z,30.72
2019-05-09T00:43:18.758Z,29.10
2019-05-09T00:46:04.092Z,28.27
2019-05-09T00:48:47.591Z,29.20
2019-05-09T00:51:17.404Z,26.85
2019-05-09T00:53:47.805Z,27.22
2019-05-09T00:56:17.596Z,33.78
2019-05-09T00:58:47.412Z,31.60
2019-05-09T01:01:17.703Z,27.52
2019-05-09T01:03:47.576Z,35.43
2019-05-09T01:06:17.392Z,28.47
2019-05-09T01:08:48.267Z,32.35
2019-05-09T01:11:18.055Z,26.75
2019-05-09T01:13:47.898Z,25.40
2019-05-09T01:16:17.696Z,29.60
2019-05-09T01:18:47.489Z,35.60
2019-05-09T01:21:17.330Z,27.95
2019-05-09T01:23:47.710Z,25.23
2019-05-09T01:26:17.505Z,23.60
2019-05-09T01:28:47.315Z,26.27
2019-05-09T01:31:17.210Z,28.02
2019-05-09T01:33:54.833Z,25.62
2019-05-09T01:36:26.263Z,26.73
2019-05-09T01:38:56.228Z,24.80
2019-05-09T01:41:30.829Z,24.92
2019-05-09T01:43:57.926Z,28.92
2019-05-09T01:46:28.506Z,24.37
2019-05-09T01:48:58.322Z,27.15
2019-05-09T01:51:28.128Z,32.03
2019-05-09T01:53:58.438Z,25.97
2019-05-09T01:56:28.248Z,31.85
2019-05-09T01:58:58.828Z,28.50
2019-05-09T02:01:29.451Z,29.95
2019-05-09T02:03:59.247Z,26.37
2019-05-09T02:06:29.664Z,28.52
2019-05-09T02:08:59.490Z,23.12
2019-05-09T02:11:41.697Z,27.85
2019-05-09T02:14:00.756Z,26.85
2019-05-09T02:16:36.021Z,29.82
2019-05-09T02:19:16.415Z,26.57
2019-05-09T02:21:46.528Z,26.68
2019-05-09T02:24:16.390Z,26.57
2019-05-09T02:26:46.446Z,29.50
2019-05-09T02:29:16.286Z,32.58
2019-05-09T02:31:46.082Z,28.75
2019-05-09T02:34:16.151Z,28.87
2019-05-09T02:36:49.379Z,26.93
2019-05-09T02:39:18.929Z,27.62
2019-05-09T02:42:00.854Z,27.15
2019-05-09T02:44:20.444Z,24.85
2019-05-09T02:46:54.543Z,25.80
2019-05-09T02:49:24.439Z,24.25
2019-05-09T02:51:54.270Z,33.10
2019-05-09T02:54:24.056Z,25.20
2019-05-09T02:56:53.856Z,27.20
2019-05-09T02:59:35.163Z,26.45
2019-05-09T03:02:09.455Z,31.10
2019-05-09T03:04:39.884Z,24.90
2019-05-09T03:07:10.104Z,25.20
2019-05-09T03:09:39.873Z,27.00
2019-05-09T03:12:22.990Z,25.62
2019-05-09T03:14:41.107Z,20.05
2019-05-09T03:17:11.384Z,20.48
2019-05-09T03:19:41.171Z,27.02
2019-05-09T03:22:12.643Z,26.55
2019-05-09T03:24:42.506Z,22.98
2019-05-09T03:27:30.641Z,27.27
2019-05-09T03:30:02.081Z,20.95
2019-05-09T03:32:31.856Z,22.45
2019-05-09T03:35:01.704Z,26.02
2019-05-09T03:37:31.475Z,25.15
2019-05-09T03:40:01.266Z,25.00
2019-05-09T03:42:41.075Z,30.57
2019-05-09T03:45:03.272Z,27.15
2019-05-09T03:47:34.839Z,26.15
2019-05-09T03:50:09.829Z,29.32
2019-05-09T03:52:39.677Z,27.05
2019-05-09T03:55:11.503Z,31.05
2019-05-09T03:57:48.991Z,24.27
2019-05-09T04:00:18.941Z,25.97
2019-05-09T04:02:48.843Z,23.70
2019-05-09T04:05:18.880Z,26.87
2019-05-09T04:07:48.705Z,28.45
2019-05-09T04:10:18.804Z,30.37
2019-05-09T04:12:55.825Z,36.42
2019-05-09T04:15:21.155Z,24.10
2019-05-09T04:17:51.858Z,27.50
2019-05-09T04:20:21.702Z,27.42
2019-05-09T04:22:51.500Z,29.85
2019-05-09T04:25:23.220Z,28.85
2019-05-09T04:27:53.506Z,30.68
2019-05-09T04:30:24.025Z,35.35
2019-05-09T04:32:53.969Z,33.80
2019-05-09T04:35:24.074Z,32.65
2019-05-09T04:37:53.877Z,32.10
2019-05-09T04:40:24.127Z,34.90
2019-05-09T04:43:07.890Z,39.18
2019-05-09T04:45:41.858Z,39.92
2019-05-09T04:48:31.410Z,33.67
2019-05-09T04:51:07.632Z,29.75
2019-05-09T04:53:37.706Z,32.80
2019-05-09T04:56:17.522Z,34.45
2019-05-09T04:58:48.169Z,31.45
2019-05-09T05:01:20.876Z,29.50
2019-05-09T05:03:52.466Z,24.05
2019-05-09T05:06:22.579Z,29.72
2019-05-09T05:08:52.760Z,26.10
2019-05-09T05:11:23.453Z,37.48
2019-05-09T05:13:53.392Z,38.00
2019-05-09T05:16:23.657Z,32.80
2019-05-09T05:18:53.495Z,33.38
2019-05-09T05:21:23.387Z,38.15
2019-05-09T05:23:55.052Z,35.15
2019-05-09T05:26:27.566Z,28.47
2019-05-09T05:28:58.057Z,28.32
2019-05-09T05:31:28.664Z,29.52
2019-05-09T05:34:01.684Z,28.15
2019-05-09T05:36:31.489Z,29.50
2019-05-09T05:39:01.256Z,27.05
2019-05-09T05:41:31.576Z,27.87
2019-05-09T05:44:01.352Z,35.00
2019-05-09T05:46:32.779Z,34.08
2019-05-09T05:49:02.678Z,29.75
2019-05-09T05:51:34.207Z,29.00
2019-05-09T05:54:04.791Z,29.70
2019-05-09T05:56:34.760Z,32.78
2019-05-09T05:59:04.730Z,34.58
2019-05-09T06:01:34.517Z,31.33
2019-05-09T06:04:04.560Z,28.38
2019-05-09T06:06:34.461Z,27.37
2019-05-09T06:09:08.305Z,29.02
2019-05-09T06:11:38.533Z,24.60
2019-05-09T06:14:11.614Z,30.92
2019-05-09T06:16:39.787Z,24.37
2019-05-09T06:19:09.678Z,23.73
2019-05-09T06:21:39.461Z,31.23
2019-05-09T06:24:09.255Z,25.90
2019-05-09T06:26:39.140Z,30.60
2019-05-09T06:29:09.350Z,24.20
2019-05-09T06:31:39.137Z,29.45
2019-05-09T06:34:08.986Z,23.47
2019-05-09T06:36:39.153Z,25.30
2019-05-09T06:39:10.434Z,23.47
2019-05-09T06:41:40.808Z,25.65
2019-05-09T06:44:21.269Z,20.50
2019-05-09T06:46:59.032Z,22.32
2019-05-09T06:49:33.786Z,19.90
2019-05-09T06:52:03.663Z,25.30
2019-05-09T06:54:33.724Z,35.70
2019-05-09T06:57:03.527Z,20.62
2019-05-09T06:59:33.794Z,22.90
2019-05-09T07:02:05.375Z,19.80
2019-05-09T07:04:38.083Z,22.93
2019-05-09T07:07:18.904Z,17.73
2019-05-09T07:09:58.379Z,22.48
2019-05-09T07:12:28.414Z,17.23
2019-05-09T07:14:58.387Z,26.65
2019-05-09T07:17:31.851Z,26.65
2019-05-09T07:20:00.033Z,16.15
2019-05-09T07:22:32.329Z,17.32
2019-05-09T07:25:10.912Z,22.30
2019-05-09T07:27:42.907Z,18.77
2019-05-09T07:30:15.142Z,23.32
2019-05-09T07:32:58.006Z,17.80
2019-05-09T07:35:28.078Z,19.05
2019-05-09T07:37:58.059Z,22.73
2019-05-09T07:40:30.543Z,18.57
2019-05-09T07:42:59.789Z,21.37
2019-05-09T07:45:30.454Z,20.27
2019-05-09T07:48:00.246Z,26.17
2019-05-09T07:50:30.167Z,18.77
2019-05-09T07:53:00.131Z,20.85
2019-05-09T07:55:29.952Z,26.12
2019-05-09T07:57:59.775Z,22.98
2019-05-09T08:00:38.445Z,19.07
2019-05-09T08:03:13.071Z,22.73
2019-05-09T08:05:40.954Z,19.77
2019-05-09T08:08:18.560Z,18.92
2019-05-09T08:10:48.009Z,18.62
2019-05-09T08:13:21.186Z,19.60
2019-05-09T08:15:49.322Z,21.05
2019-05-09T08:18:19.909Z,18.00
2019-05-09T08:20:49.691Z,16.25
2019-05-09T08:23:19.537Z,19.10
2019-05-09T08:25:49.766Z,20.30
2019-05-09T08:28:20.116Z,14.05
2019-05-09T08:30:50.196Z,25.77
2019-05-09T08:33:19.994Z,25.37
2019-05-09T08:35:52.488Z,18.75
2019-05-09T08:38:21.209Z,17.90
2019-05-09T08:40:52.632Z,18.70
2019-05-09T08:43:22.419Z,18.70
2019-05-09T08:45:52.228Z,27.35
2019-05-09T08:48:22.008Z,23.12
2019-05-09T08:50:53.570Z,17.42
2019-05-09T08:53:24.033Z,16.42
2019-05-09T08:55:53.825Z,21.37
2019-05-09T08:58:23.627Z,19.05
2019-05-09T09:00:53.854Z,14.47
2019-05-09T09:03:28.258Z,17.17
2019-05-09T09:05:57.910Z,13.95
2019-05-09T09:08:28.521Z,19.32
2019-05-09T09:10:58.419Z,14.00
2019-05-09T09:13:28.614Z,13.65
2019-05-09T09:16:14.638Z,14.28
2019-05-09T09:18:29.990Z,10.70
2019-05-09T09:20:59.888Z,16.60
2019-05-09T09:23:42.879Z,15.58
2019-05-09T09:26:01.761Z,12.25
2019-05-09T09:28:31.735Z,13.15
2019-05-09T09:31:02.061Z,13.65
2019-05-09T09:33:31.845Z,18.15
2019-05-09T09:36:01.672Z,15.53
2019-05-09T09:38:31.864Z,15.60
2019-05-09T09:41:01.643Z,18.20
2019-05-09T09:43:31.662Z,15.55
2019-05-09T09:46:10.894Z,15.08
2019-05-09T09:48:32.895Z,13.75
2019-05-09T09:51:03.230Z,12.98
2019-05-09T09:53:33.097Z,13.40
2019-05-09T09:56:02.958Z,13.35
2019-05-09T09:58:55.110Z,10.53
2019-05-09T10:01:28.765Z,15.53
2019-05-09T10:04:16.758Z,16.77
2019-05-09T10:06:38.815Z,10.35
2019-05-09T10:09:09.814Z,14.58
2019-05-09T10:11:39.654Z,14.95
2019-05-09T10:14:11.641Z,16.00
2019-05-09T10:16:43.875Z,17.60
2019-05-09T10:19:18.587Z,12.78
2019-05-09T10:21:50.094Z,12.73
2019-05-09T10:24:19.954Z,15.58
2019-05-09T10:27:05.126Z,14.35
2019-05-09T10:29:38.548Z,12.85
2019-05-09T10:32:13.022Z,13.90
2019-05-09T10:34:43.319Z,13.22
2019-05-09T10:37:13.761Z,13.93
2019-05-09T10:39:43.623Z,14.40
2019-05-09T10:42:30.397Z,16.32
2019-05-09T10:45:04.686Z,13.38
2019-05-09T10:47:37.754Z,24.02
2019-05-09T10:50:08.687Z,22.27
2019-05-09T10:52:38.569Z,16.75
2019-05-09T10:55:09.233Z,18.42
2019-05-09T10:57:42.587Z,17.20
2019-05-09T11:00:11.381Z,13.90
2019-05-09T11:02:41.163Z,20.15
2019-05-09T11:05:11.073Z,20.48
2019-05-09T11:07:40.986Z,22.17
2019-05-09T11:10:24.449Z,19.17
2019-05-09T11:12:42.475Z,15.72
2019-05-09T11:15:13.214Z,19.30
2019-05-09T11:17:43.549Z,18.80
2019-05-09T11:20:13.428Z,16.90
2019-05-09T11:22:43.257Z,19.80
2019-05-09T11:25:13.614Z,12.98
2019-05-09T11:27:43.425Z,19.60
2019-05-09T11:30:13.321Z,13.88
2019-05-09T11:32:43.247Z,17.07
2019-05-09T11:35:13.036Z,16.67
2019-05-09T11:37:42.933Z,20.17
2019-05-09T11:40:13.210Z,14.10
2019-05-09T11:42:42.963Z,17.12
2019-05-09T11:45:13.393Z,18.77
2019-05-09T11:47:46.499Z,17.37
2019-05-09T11:50:14.754Z,14.35
2019-05-09T11:52:44.685Z,26.27
2019-05-09T11:55:28.554Z,24.40
2019-05-09T11:57:48.349Z,24.50
2019-05-09T12:00:18.044Z,25.12
2019-05-09T12:02:49.857Z,24.32
2019-05-09T12:05:20.575Z,16.75
2019-05-09T12:07:50.460Z,23.42
2019-05-09T12:10:20.401Z,18.20
2019-05-09T12:12:50.274Z,23.18
2019-05-09T12:15:20.444Z,22.52
2019-05-09T12:17:57.835Z,18.30
2019-05-09T12:20:21.624Z,23.55
2019-05-09T12:22:52.153Z,20.62
2019-05-09T12:25:21.942Z,12.40
2019-05-09T12:27:51.832Z,16.42
2019-05-09T12:30:21.910Z,16.20
2019-05-09T12:32:51.696Z,13.95
2019-05-09T12:35:21.495Z,15.18
2019-05-09T12:37:52.064Z,18.52
2019-05-09T12:40:22.709Z,17.20
2019-05-09T12:42:52.500Z,18.30
2019-05-09T12:45:22.332Z,23.12
2019-05-09T12:48:06.298Z,17.32
2019-05-09T12:50:23.868Z,18.12
2019-05-09T12:52:53.694Z,20.08
2019-05-09T12:55:23.486Z,19.00
2019-05-09T12:57:53.693Z,18.92
2019-05-09T13:00:24.424Z,19.05
2019-05-09T13:02:54.694Z,16.40
2019-05-09T13:05:24.492Z,18.17
2019-05-09T13:07:54.782Z,13.68
2019-05-09T13:10:24.567Z,14.20
2019-05-09T13:12:54.410Z,14.38
2019-05-09T13:15:30.623Z,11.28
2019-05-09T13:17:58.591Z,12.90
2019-05-09T13:20:28.601Z,11.48
2019-05-09T13:22:58.953Z,15.13
2019-05-09T13:25:30.277Z,17.07
2019-05-09T13:28:00.099Z,15.98
2019-05-09T13:30:29.991Z,12.23
2019-05-09T13:32:59.893Z,10.58
2019-05-09T13:35:29.744Z,12.73
2019-05-09T13:37:59.831Z,11.90
2019-05-09T13:40:30.005Z,14.33
2019-05-09T13:43:00.115Z,16.15
2019-05-09T13:45:29.920Z,12.68
2019-05-09T13:47:59.717Z,10.43
2019-05-09T13:50:29.568Z,67.80
2019-05-09T13:52:59.397Z,18.05
2019-05-09T13:55:29.346Z,19.65
2019-05-09T13:57:59.523Z,21.97
2019-05-09T14:00:29.511Z,13.13
2019-05-09T14:02:59.285Z,19.48
2019-05-09T14:05:29.403Z,10.18
2019-05-09T14:08:03.504Z,17.02
2019-05-09T14:10:31.905Z,17.23
2019-05-09T14:13:09.373Z,17.32
2019-05-09T14:15:33.129Z,13.88
2019-05-09T14:18:03.787Z,14.28
2019-05-09T14:20:34.115Z,12.98
2019-05-09T14:23:04.405Z,12.78
2019-05-09T14:25:37.902Z,15.25
2019-05-09T14:28:08.564Z,14.45
2019-05-09T14:30:39.607Z,11.03
2019-05-09T14:33:09.407Z,14.20
2019-05-09T14:35:39.169Z,16.60
2019-05-09T14:38:09.135Z,10.68
2019-05-09T14:40:38.919Z,18.48
2019-05-09T14:43:09.787Z,14.45
2019-05-09T14:45:39.829Z,13.28
2019-05-09T14:50:54.890Z,13.18
2019-05-09T14:53:24.667Z,14.30
2019-05-09T14:55:54.451Z,18.07
2019-05-09T14:58:24.261Z,21.30
2019-05-09T15:01:13.309Z,16.37
2019-05-09T15:03:43.327Z,15.30
2019-05-09T15:06:13.370Z,17.57
2019-05-09T15:08:43.194Z,16.67
2019-05-09T15:11:13.025Z,11.55
2019-05-09T15:13:43.127Z,15.75
2019-05-09T15:16:12.909Z,12.07
2019-05-09T15:18:42.741Z,10.80
2019-05-09T15:21:13.002Z,9.58
2019-05-09T15:23:42.784Z,12.35
2019-05-09T15:26:12.679Z,12.43
2019-05-09T15:28:42.997Z,12.73
2019-05-09T15:31:12.791Z,11.18
2019-05-09T15:33:42.631Z,16.48
2019-05-09T15:36:12.781Z,11.68
2019-05-09T15:38:42.575Z,14.73
2019-05-09T15:41:12.434Z,19.75
2019-05-09T15:43:42.593Z,15.68
2019-05-09T15:46:20.552Z,15.35
2019-05-09T15:48:50.348Z,12.37
2019-05-09T15:51:20.132Z,17.55
2019-05-09T15:53:50.035Z,22.62
2019-05-09T15:56:19.825Z,13.70
2019-05-09T15:58:49.610Z,20.05
2019-05-09T16:01:19.514Z,17.90
2019-05-09T16:03:49.302Z,14.63
2019-05-09T16:06:20.701Z,12.33
2019-05-09T16:08:51.121Z,15.38
2019-05-09T16:11:20.910Z,17.25
2019-05-09T16:13:50.765Z,24.20
2019-05-09T16:16:20.612Z,19.87
2019-05-09T16:18:50.408Z,18.15
2019-05-09T16:21:20.179Z,16.07
2019-05-09T16:23:50.561Z,17.70
2019-05-09T16:26:20.426Z,19.37
2019-05-09T16:28:50.258Z,12.30
2019-05-09T16:31:20.409Z,15.10
2019-05-09T16:33:50.208Z,20.08
2019-05-09T16:36:19.968Z,12.40
2019-05-09T16:38:50.500Z,11.75
2019-05-09T16:41:20.283Z,12.73
2019-05-09T16:43:50.087Z,16.48
2019-05-09T16:46:20.458Z,10.68
2019-05-09T16:48:51.457Z,15.50
2019-05-09T16:51:21.410Z,16.62
2019-05-09T16:53:51.289Z,17.65
2019-05-09T16:56:21.840Z,13.78
2019-05-09T16:58:52.015Z,24.20
2019-05-09T17:01:21.922Z,20.70
2019-05-09T17:03:51.760Z,17.40
2019-05-09T17:06:21.743Z,22.70
2019-05-09T17:08:51.583Z,19.80
2019-05-09T17:11:21.790Z,19.62
2019-05-09T17:13:51.587Z,12.30
2019-05-09T17:16:21.422Z,19.98
2019-05-09T17:18:52.137Z,14.65
2019-05-09T17:21:24.456Z,18.10
2019-05-09T17:23:55.684Z,14.55
2019-05-09T17:26:25.474Z,16.12
2019-05-09T17:28:55.279Z,16.82
2019-05-09T17:31:27.523Z,14.78
2019-05-09T17:33:57.975Z,15.03
2019-05-09T17:36:28.594Z,17.95
2019-05-09T17:38:58.974Z,22.80
2019-05-09T17:41:28.772Z,22.52
2019-05-09T17:43:58.824Z,20.77
2019-05-09T17:46:28.666Z,20.80
2019-05-09T17:48:59.323Z,11.95
2019-05-09T17:51:34.044Z,14.40
2019-05-09T17:54:00.754Z,22.98
2019-05-09T17:56:30.533Z,17.65
2019-05-09T17:59:00.374Z,15.80
2019-05-09T18:01:31.122Z,17.07
2019-05-09T18:04:01.490Z,16.57
2019-05-09T18:06:31.277Z,18.48
2019-05-09T18:09:02.188Z,16.75
2019-05-09T18:11:32.146Z,20.65
2019-05-09T18:14:01.948Z,20.52
2019-05-09T18:16:31.779Z,17.80
2019-05-09T18:19:02.032Z,20.30
2019-05-09T18:21:31.816Z,20.10
2019-05-09T18:24:01.646Z,21.97
2019-05-09T18:26:31.867Z,23.10
2019-05-09T18:29:02.005Z,20.62
2019-05-09T18:31:37.433Z,16.30
2019-05-09T18:34:07.829Z,17.92
2019-05-09T18:36:38.288Z,19.73
2019-05-09T18:39:08.134Z,25.10
2019-05-09T18:41:37.919Z,23.67
2019-05-09T18:44:08.156Z,20.12
2019-05-09T18:46:37.972Z,19.30
2019-05-09T18:49:07.840Z,23.40
2019-05-09T18:51:37.977Z,23.62
2019-05-09T18:54:07.796Z,25.50
2019-05-09T18:56:37.654Z,22.45
2019-05-09T18:59:07.976Z,22.17
2019-05-09T19:01:37.795Z,22.60
2019-05-09T19:04:07.590Z,22.27
2019-05-09T19:06:39.779Z,26.93
2019-05-09T19:09:09.193Z,19.87
2019-05-09T19:11:39.007Z,22.17
2019-05-09T19:14:10.413Z,23.85
2019-05-09T19:16:41.865Z,22.25
2019-05-09T19:19:16.450Z,33.53
2019-05-09T19:21:47.918Z,27.35
2019-05-09T19:24:18.574Z,23.18
2019-05-09T19:26:48.521Z,34.33
2019-05-09T19:29:18.563Z,33.73
2019-05-09T19:31:48.649Z,29.63
2019-05-09T19:34:18.593Z,33.83
2019-05-09T19:36:48.598Z,27.65
2019-05-09T19:39:18.408Z,33.30
2019-05-09T19:41:48.402Z,29.37
2019-05-09T19:44:18.333Z,23.52
2019-05-09T19:46:48.745Z,24.00
2019-05-09T19:49:18.782Z,29.72
2019-05-09T19:51:48.674Z,32.67
2019-05-09T19:54:18.456Z,22.20
2019-05-09T19:56:48.416Z,25.82
2019-05-09T19:59:18.725Z,26.10
2019-05-09T20:01:48.966Z,30.52
2019-05-09T20:04:18.756Z,25.25
2019-05-09T20:06:48.570Z,20.48
2019-05-09T20:09:22.906Z,21.90
2019-05-09T20:12:00.500Z,30.32
2019-05-09T20:14:31.930Z,19.87
2019-05-09T20:17:01.792Z,25.92
2019-05-09T20:19:32.068Z,26.25
2019-05-09T20:22:02.516Z,30.55
2019-05-09T20:24:32.306Z,26.23
2019-05-09T20:27:02.153Z,22.60
2019-05-09T20:29:32.574Z,23.22
2019-05-09T20:32:02.362Z,22.80
2019-05-09T20:34:32.210Z,21.27
2019-05-09T20:37:02.330Z,27.05
2019-05-09T20:39:32.293Z,27.52
2019-05-09T20:42:02.362Z,25.48
2019-05-09T20:44:32.339Z,34.63
2019-05-09T20:47:02.335Z,21.85
2019-05-09T20:49:32.326Z,29.70
2019-05-09T20:52:02.306Z,31.62
2019-05-09T20:54:32.279Z,25.37
2019-05-09T20:57:02.307Z,26.57
2019-05-09T20:59:33.065Z,21.02
2019-05-09T21:02:03.043Z,16.82
2019-05-09T21:04:33.044Z,20.35
2019-05-09T21:07:03.009Z,18.37
2019-05-09T21:09:33.749Z,23.10
2019-05-09T21:12:04.540Z,21.93
2019-05-09T21:14:34.510Z,24.02
2019-05-09T21:17:05.391Z,22.42
2019-05-09T21:19:36.596Z,17.82
2019-05-09T21:22:06.635Z,21.85
2019-05-09T21:24:36.614Z,23.25
2019-05-09T21:27:06.617Z,30.48
2019-05-09T21:29:36.878Z,21.17
2019-05-09T21:32:07.780Z,24.35
2019-05-09T21:34:37.648Z,19.12
2019-05-09T21:37:08.252Z,20.00
2019-05-09T21:39:38.391Z,16.85
2019-05-09T21:42:08.946Z,23.20
2019-05-09T21:44:39.003Z,24.47
2019-05-09T21:47:08.784Z,20.90
2019-05-09T21:49:38.973Z,26.48
2019-05-09T21:52:08.759Z,18.60
2019-05-09T21:54:38.539Z,14.03
2019-05-09T21:57:09.176Z,15.30
2019-05-09T21:59:41.096Z,17.40
2019-05-09T22:02:11.690Z,18.70
2019-05-09T22:04:42.244Z,21.90
2019-05-09T22:07:13.215Z,19.95
2019-05-09T22:09:43.742Z,18.62
2019-05-09T22:12:13.870Z,13.95
2019-05-09T22:14:43.663Z,14.85
2019-05-09T22:17:31.888Z,19.85
2019-05-09T22:20:01.757Z,16.32
2019-05-09T22:22:32.009Z,14.90
2019-05-09T22:25:01.823Z,15.72
2019-05-09T22:27:31.826Z,16.80
2019-05-09T22:30:01.875Z,15.65
2019-05-09T22:32:32.028Z,20.40
2019-05-09T22:35:01.812Z,13.68
2019-05-09T22:37:31.747Z,16.02
2019-05-09T22:40:01.887Z,18.90
2019-05-09T22:42:31.677Z,18.00
2019-05-09T22:45:01.475Z,17.67
2019-05-09T22:47:31.735Z,17.07
2019-05-09T22:50:01.922Z,19.85
2019-05-09T22:52:31.782Z,17.77
2019-05-09T22:55:01.603Z,22.22
2019-05-09T22:57:31.563Z,13.90
2019-05-09T23:00:01.822Z,14.95
2019-05-09T23:02:32.356Z,17.20
2019-05-09T23:05:02.350Z,16.80
2019-05-09T23:07:32.220Z,21.70
2019-05-09T23:10:03.219Z,15.48
2019-05-09T23:12:34.101Z,18.98
2019-05-09T23:15:04.755Z,17.02
2019-05-09T23:17:34.664Z,19.35
2019-05-09T23:20:08.890Z,16.65
2019-05-09T23:22:38.676Z,13.53
2019-05-09T23:25:08.570Z,16.10
2019-05-09T23:27:38.895Z,12.73
2019-05-09T23:30:11.346Z,22.85
2019-05-09T23:32:45.921Z,20.62
2019-05-09T23:35:15.912Z,17.50
2019-05-09T23:37:46.093Z,17.90
2019-05-09T23:40:16.036Z,17.07
2019-05-09T23:42:46.002Z,20.77
2019-05-09T23:45:15.870Z,17.65
2019-05-09T23:47:46.029Z,18.00
2019-05-09T23:50:15.854Z,15.08
2019-05-09T23:52:46.050Z,19.95
2019-05-09T23:55:35.638Z,18.48
2019-05-09T23:58:23.858Z,27.02
